< < Back
Terminal Aerodrome Forecast


Current Version              Previous Versions:   1  2  3  4  5  6  7  8  9  

Terminal Aerodrome Forecast

696
FTUS42 KGSP 280334 AAA
TAFAND
TAF AMD
KAND 280334Z 2804/2824 06008KT P6SM FEW060
     FM281000 06009KT P6SM BKN024=



Latest METAR

710
SAUS70 KWBC 281300
MTRAND
METAR KAND 281256Z AUTO 06012KT 10SM FEW110 01/M08 A3062 RMK AO2 SLP373
T00111078


USA.gov is the U.S. government's official web portal to all federal, state and local government web resources and services.